sensor_id;sensor_type;location;lat;lon;timestamp;P1;durP1;ratioP1;P2;durP2;ratioP2
53903;SDS011;39812;52.430;16.936;2022-08-18T00:01:06;13.52;;;8.85;;
53903;SDS011;39812;52.430;16.936;2022-08-18T00:03:32;19.88;;;10.35;;
53903;SDS011;39812;52.430;16.936;2022-08-18T00:05:58;14.70;;;10.23;;
53903;SDS011;39812;52.430;16.936;2022-08-18T00:08:23;18.70;;;11.75;;
53903;SDS011;39812;52.430;16.936;2022-08-18T00:10:49;14.93;;;9.60;;
53903;SDS011;39812;52.430;16.936;2022-08-18T00:13:14;14.52;;;10.40;;
53903;SDS011;39812;52.430;16.936;2022-08-18T00:15:40;14.20;;;10.25;;
53903;SDS011;39812;52.430;16.936;2022-08-18T00:18:05;15.15;;;9.40;;
53903;SDS011;39812;52.430;16.936;2022-08-18T00:20:31;16.02;;;9.93;;
53903;SDS011;39812;52.430;16.936;2022-08-18T00:22:56;17.48;;;10.70;;
53903;SDS011;39812;52.430;16.936;2022-08-18T00:25:22;15.57;;;9.98;;
53903;SDS011;39812;52.430;16.936;2022-08-18T00:27:48;11.95;;;9.15;;
53903;SDS011;39812;52.430;16.936;2022-08-18T00:30:15;13.55;;;9.57;;
53903;SDS011;39812;52.430;16.936;2022-08-18T00:32:44;16.20;;;10.40;;
53903;SDS011;39812;52.430;16.936;2022-08-18T00:35:14;16.65;;;10.93;;
53903;SDS011;39812;52.430;16.936;2022-08-18T00:37:45;16.90;;;11.25;;
53903;SDS011;39812;52.430;16.936;2022-08-18T00:40:14;15.70;;;10.85;;
53903;SDS011;39812;52.430;16.936;2022-08-18T00:42:47;14.55;;;10.35;;
53903;SDS011;39812;52.430;16.936;2022-08-18T00:45:17;14.45;;;10.18;;
53903;SDS011;39812;52.430;16.936;2022-08-18T00:47:44;17.05;;;11.63;;
53903;SDS011;39812;52.430;16.936;2022-08-18T00:50:11;14.43;;;10.50;;
53903;SDS011;39812;52.430;16.936;2022-08-18T00:52:39;12.50;;;9.88;;
53903;SDS011;39812;52.430;16.936;2022-08-18T00:55:06;16.67;;;10.85;;
53903;SDS011;39812;52.430;16.936;2022-08-18T00:57:32;16.75;;;10.80;;
53903;SDS011;39812;52.430;16.936;2022-08-18T01:00:00;11.52;;;9.98;;
53903;SDS011;39812;52.430;16.936;2022-08-18T01:02:40;17.83;;;10.10;;
53903;SDS011;39812;52.430;16.936;2022-08-18T01:05:16;13.75;;;10.32;;
53903;SDS011;39812;52.430;16.936;2022-08-18T01:07:43;17.60;;;10.67;;
53903;SDS011;39812;52.430;16.936;2022-08-18T01:10:11;16.38;;;10.93;;
53903;SDS011;39812;52.430;16.936;2022-08-18T01:12:46;14.25;;;10.88;;
53903;SDS011;39812;52.430;16.936;2022-08-18T01:15:17;15.95;;;10.50;;
53903;SDS011;39812;52.430;16.936;2022-08-18T01:17:44;18.85;;;11.32;;
53903;SDS011;39812;52.430;16.936;2022-08-18T01:20:33;13.50;;;10.43;;
53903;SDS011;39812;52.430;16.936;2022-08-18T01:23:21;14.43;;;10.90;;
53903;SDS011;39812;52.430;16.936;2022-08-18T01:25:47;14.57;;;11.02;;
53903;SDS011;39812;52.430;16.936;2022-08-18T01:28:27;15.93;;;11.18;;
53903;SDS011;39812;52.430;16.936;2022-08-18T01:30:55;15.90;;;11.55;;
53903;SDS011;39812;52.430;16.936;2022-08-18T01:33:41;16.48;;;12.38;;
53903;SDS011;39812;52.430;16.936;2022-08-18T01:36:18;17.00;;;11.57;;
53903;SDS011;39812;52.430;16.936;2022-08-18T01:38:49;18.30;;;11.57;;
53903;SDS011;39812;52.430;16.936;2022-08-18T01:41:17;17.20;;;11.88;;
53903;SDS011;39812;52.430;16.936;2022-08-18T01:43:45;19.02;;;13.18;;
53903;SDS011;39812;52.430;16.936;2022-08-18T01:46:11;15.23;;;12.45;;
53903;SDS011;39812;52.430;16.936;2022-08-18T01:48:37;17.15;;;12.95;;
53903;SDS011;39812;52.430;16.936;2022-08-18T01:51:04;17.98;;;13.43;;
53903;SDS011;39812;52.430;16.936;2022-08-18T01:53:31;16.58;;;13.07;;
53903;SDS011;39812;52.430;16.936;2022-08-18T01:55:57;19.33;;;13.75;;
53903;SDS011;39812;52.430;16.936;2022-08-18T01:58:23;16.00;;;12.98;;
53903;SDS011;39812;52.430;16.936;2022-08-18T02:00:55;19.95;;;14.90;;
53903;SDS011;39812;52.430;16.936;2022-08-18T02:03:22;19.25;;;13.93;;
53903;SDS011;39812;52.430;16.936;2022-08-18T02:05:51;24.17;;;14.20;;
53903;SDS011;39812;52.430;16.936;2022-08-18T02:08:20;21.90;;;14.55;;
53903;SDS011;39812;52.430;16.936;2022-08-18T02:10:46;18.65;;;14.40;;
53903;SDS011;39812;52.430;16.936;2022-08-18T02:13:12;17.58;;;14.10;;
53903;SDS011;39812;52.430;16.936;2022-08-18T02:15:37;19.95;;;14.48;;
53903;SDS011;39812;52.430;16.936;2022-08-18T02:18:03;20.30;;;14.80;;
53903;SDS011;39812;52.430;16.936;2022-08-18T02:20:28;16.40;;;13.40;;
53903;SDS011;39812;52.430;16.936;2022-08-18T02:22:54;18.20;;;13.90;;
53903;SDS011;39812;52.430;16.936;2022-08-18T02:25:22;19.30;;;14.38;;
53903;SDS011;39812;52.430;16.936;2022-08-18T02:27:48;22.05;;;14.65;;
53903;SDS011;39812;52.430;16.936;2022-08-18T02:30:14;17.70;;;14.80;;
53903;SDS011;39812;52.430;16.936;2022-08-18T02:32:41;19.80;;;15.05;;
53903;SDS011;39812;52.430;16.936;2022-08-18T02:35:06;18.70;;;15.75;;
53903;SDS011;39812;52.430;16.936;2022-08-18T02:37:33;19.02;;;15.27;;
53903;SDS011;39812;52.430;16.936;2022-08-18T02:39:59;19.77;;;15.68;;
53903;SDS011;39812;52.430;16.936;2022-08-18T02:42:24;22.05;;;15.07;;
53903;SDS011;39812;52.430;16.936;2022-08-18T02:44:52;21.45;;;15.10;;
53903;SDS011;39812;52.430;16.936;2022-08-18T02:47:18;19.17;;;15.23;;
53903;SDS011;39812;52.430;16.936;2022-08-18T02:49:47;20.02;;;14.98;;
53903;SDS011;39812;52.430;16.936;2022-08-18T02:52:12;17.50;;;14.00;;
53903;SDS011;39812;52.430;16.936;2022-08-18T02:54:38;19.25;;;15.18;;
53903;SDS011;39812;52.430;16.936;2022-08-18T02:57:07;21.02;;;15.07;;
53903;SDS011;39812;52.430;16.936;2022-08-18T02:59:37;20.85;;;15.63;;
53903;SDS011;39812;52.430;16.936;2022-08-18T03:02:05;19.42;;;15.38;;
53903;SDS011;39812;52.430;16.936;2022-08-18T03:04:32;20.65;;;14.55;;
53903;SDS011;39812;52.430;16.936;2022-08-18T03:06:59;20.80;;;16.38;;
53903;SDS011;39812;52.430;16.936;2022-08-18T03:09:28;19.45;;;16.08;;
53903;SDS011;39812;52.430;16.936;2022-08-18T03:11:54;22.90;;;16.60;;
53903;SDS011;39812;52.430;16.936;2022-08-18T03:14:20;20.10;;;16.00;;
53903;SDS011;39812;52.430;16.936;2022-08-18T03:16:46;21.88;;;17.88;;
53903;SDS011;39812;52.430;16.936;2022-08-18T03:19:13;24.75;;;16.85;;
53903;SDS011;39812;52.430;16.936;2022-08-18T03:21:40;20.02;;;16.40;;
53903;SDS011;39812;52.430;16.936;2022-08-18T03:24:10;22.13;;;16.25;;
53903;SDS011;39812;52.430;16.936;2022-08-18T03:26:41;22.67;;;18.65;;
53903;SDS011;39812;52.430;16.936;2022-08-18T03:29:08;24.95;;;17.85;;
53903;SDS011;39812;52.430;16.936;2022-08-18T03:31:35;22.00;;;17.23;;
53903;SDS011;39812;52.430;16.936;2022-08-18T03:34:02;25.13;;;16.55;;
53903;SDS011;39812;52.430;16.936;2022-08-18T03:36:29;22.00;;;15.80;;
53903;SDS011;39812;52.430;16.936;2022-08-18T03:38:57;24.75;;;20.00;;
53903;SDS011;39812;52.430;16.936;2022-08-18T03:41:26;25.73;;;18.15;;
53903;SDS011;39812;52.430;16.936;2022-08-18T03:43:53;21.73;;;17.38;;
53903;SDS011;39812;52.430;16.936;2022-08-18T03:46:19;19.95;;;15.68;;
53903;SDS011;39812;52.430;16.936;2022-08-18T03:48:46;27.35;;;18.70;;
53903;SDS011;39812;52.430;16.936;2022-08-18T03:51:13;24.38;;;17.67;;
53903;SDS011;39812;52.430;16.936;2022-08-18T03:53:46;24.15;;;17.75;;
53903;SDS011;39812;52.430;16.936;2022-08-18T03:56:14;25.48;;;18.08;;
53903;SDS011;39812;52.430;16.936;2022-08-18T03:58:42;24.95;;;18.05;;
53903;SDS011;39812;52.430;16.936;2022-08-18T04:01:10;24.63;;;17.98;;
53903;SDS011;39812;52.430;16.936;2022-08-18T04:03:39;24.70;;;19.50;;
53903;SDS011;39812;52.430;16.936;2022-08-18T04:06:18;26.65;;;18.42;;
53903;SDS011;39812;52.430;16.936;2022-08-18T04:08:50;24.92;;;18.13;;
53903;SDS011;39812;52.430;16.936;2022-08-18T04:11:17;26.67;;;17.40;;
53903;SDS011;39812;52.430;16.936;2022-08-18T04:13:42;24.75;;;17.80;;
53903;SDS011;39812;52.430;16.936;2022-08-18T04:16:08;23.65;;;17.95;;
53903;SDS011;39812;52.430;16.936;2022-08-18T04:18:34;23.45;;;17.65;;
53903;SDS011;39812;52.430;16.936;2022-08-18T04:21:00;24.20;;;18.02;;
53903;SDS011;39812;52.430;16.936;2022-08-18T04:23:27;23.67;;;17.55;;
53903;SDS011;39812;52.430;16.936;2022-08-18T04:25:56;25.20;;;18.40;;
53903;SDS011;39812;52.430;16.936;2022-08-18T04:28:23;25.20;;;18.35;;
53903;SDS011;39812;52.430;16.936;2022-08-18T04:30:49;23.63;;;17.70;;
53903;SDS011;39812;52.430;16.936;2022-08-18T04:33:14;22.95;;;17.45;;
53903;SDS011;39812;52.430;16.936;2022-08-18T04:35:40;25.65;;;18.83;;
53903;SDS011;39812;52.430;16.936;2022-08-18T04:38:05;22.23;;;17.73;;
53903;SDS011;39812;52.430;16.936;2022-08-18T04:40:31;24.40;;;18.02;;
53903;SDS011;39812;52.430;16.936;2022-08-18T04:42:58;26.83;;;19.05;;
53903;SDS011;39812;52.430;16.936;2022-08-18T04:45:25;26.52;;;19.00;;
53903;SDS011;39812;52.430;16.936;2022-08-18T04:47:51;24.00;;;18.13;;
53903;SDS011;39812;52.430;16.936;2022-08-18T04:50:17;26.00;;;17.95;;
53903;SDS011;39812;52.430;16.936;2022-08-18T04:52:43;25.60;;;18.63;;
53903;SDS011;39812;52.430;16.936;2022-08-18T04:55:27;26.48;;;18.70;;
53903;SDS011;39812;52.430;16.936;2022-08-18T04:57:53;27.60;;;18.42;;
53903;SDS011;39812;52.430;16.936;2022-08-18T05:00:19;25.58;;;17.85;;
53903;SDS011;39812;52.430;16.936;2022-08-18T05:02:44;24.95;;;18.38;;
53903;SDS011;39812;52.430;16.936;2022-08-18T05:05:10;27.55;;;18.17;;
53903;SDS011;39812;52.430;16.936;2022-08-18T05:07:36;33.85;;;18.15;;
53903;SDS011;39812;52.430;16.936;2022-08-18T05:10:08;25.38;;;18.60;;
53903;SDS011;39812;52.430;16.936;2022-08-18T05:12:34;28.27;;;18.83;;
53903;SDS011;39812;52.430;16.936;2022-08-18T05:15:00;26.13;;;18.50;;
53903;SDS011;39812;52.430;16.936;2022-08-18T05:17:25;26.42;;;18.25;;
53903;SDS011;39812;52.430;16.936;2022-08-18T05:19:52;28.63;;;19.50;;
53903;SDS011;39812;52.430;16.936;2022-08-18T05:22:18;26.95;;;18.25;;
53903;SDS011;39812;52.430;16.936;2022-08-18T05:24:44;25.20;;;19.20;;
53903;SDS011;39812;52.430;16.936;2022-08-18T05:27:11;24.80;;;18.95;;
53903;SDS011;39812;52.430;16.936;2022-08-18T05:29:36;28.83;;;18.80;;
53903;SDS011;39812;52.430;16.936;2022-08-18T05:32:02;26.17;;;20.33;;
53903;SDS011;39812;52.430;16.936;2022-08-18T05:34:31;26.15;;;19.33;;
53903;SDS011;39812;52.430;16.936;2022-08-18T05:37:10;24.75;;;19.75;;
53903;SDS011;39812;52.430;16.936;2022-08-18T05:39:55;24.17;;;18.88;;
53903;SDS011;39812;52.430;16.936;2022-08-18T05:42:33;26.60;;;19.27;;
53903;SDS011;39812;52.430;16.936;2022-08-18T05:45:01;22.08;;;18.08;;
53903;SDS011;39812;52.430;16.936;2022-08-18T05:47:29;29.45;;;19.08;;
53903;SDS011;39812;52.430;16.936;2022-08-18T05:49:56;24.08;;;17.83;;
53903;SDS011;39812;52.430;16.936;2022-08-18T05:52:34;25.65;;;18.20;;
53903;SDS011;39812;52.430;16.936;2022-08-18T05:55:05;26.42;;;17.55;;
53903;SDS011;39812;52.430;16.936;2022-08-18T05:57:54;23.60;;;19.25;;
53903;SDS011;39812;52.430;16.936;2022-08-18T06:00:25;24.33;;;19.38;;
53903;SDS011;39812;52.430;16.936;2022-08-18T06:02:57;25.80;;;18.45;;
53903;SDS011;39812;52.430;16.936;2022-08-18T06:05:31;26.75;;;19.30;;
53903;SDS011;39812;52.430;16.936;2022-08-18T06:08:10;28.27;;;18.92;;
53903;SDS011;39812;52.430;16.936;2022-08-18T06:10:38;23.60;;;18.20;;
53903;SDS011;39812;52.430;16.936;2022-08-18T06:13:10;26.30;;;17.70;;
53903;SDS011;39812;52.430;16.936;2022-08-18T06:15:39;28.45;;;18.02;;
53903;SDS011;39812;52.430;16.936;2022-08-18T06:24:01;25.10;;;17.30;;
53903;SDS011;39812;52.430;16.936;2022-08-18T06:27:20;30.63;;;21.75;;
53903;SDS011;39812;52.430;16.936;2022-08-18T06:32:38;25.90;;;16.15;;
53903;SDS011;39812;52.430;16.936;2022-08-18T06:38:10;23.95;;;15.65;;
53903;SDS011;39812;52.430;16.936;2022-08-18T06:43:57;23.38;;;16.42;;
53903;SDS011;39812;52.430;16.936;2022-08-18T06:46:29;21.30;;;15.35;;
53903;SDS011;39812;52.430;16.936;2022-08-18T06:49:11;25.20;;;16.35;;
53903;SDS011;39812;52.430;16.936;2022-08-18T06:51:43;22.52;;;15.98;;
53903;SDS011;39812;52.430;16.936;2022-08-18T06:56:48;20.33;;;15.57;;
53903;SDS011;39812;52.430;16.936;2022-08-18T06:59:27;19.13;;;15.55;;
53903;SDS011;39812;52.430;16.936;2022-08-18T07:01:57;24.25;;;16.13;;
53903;SDS011;39812;52.430;16.936;2022-08-18T07:04:36;21.15;;;15.13;;
53903;SDS011;39812;52.430;16.936;2022-08-18T07:07:15;19.23;;;14.68;;
53903;SDS011;39812;52.430;16.936;2022-08-18T07:09:44;21.17;;;15.13;;
53903;SDS011;39812;52.430;16.936;2022-08-18T07:12:18;21.27;;;14.70;;
53903;SDS011;39812;52.430;16.936;2022-08-18T07:14:56;23.75;;;14.98;;
53903;SDS011;39812;52.430;16.936;2022-08-18T07:17:27;23.10;;;14.20;;
53903;SDS011;39812;52.430;16.936;2022-08-18T07:20:27;20.33;;;13.88;;
53903;SDS011;39812;52.430;16.936;2022-08-18T07:22:52;25.80;;;14.13;;
53903;SDS011;39812;52.430;16.936;2022-08-18T07:25:20;15.57;;;13.00;;
53903;SDS011;39812;52.430;16.936;2022-08-18T07:27:49;20.45;;;14.77;;
53903;SDS011;39812;52.430;16.936;2022-08-18T07:35:36;18.58;;;14.35;;
53903;SDS011;39812;52.430;16.936;2022-08-18T07:38:08;19.58;;;15.15;;
53903;SDS011;39812;52.430;16.936;2022-08-18T07:40:57;18.33;;;13.25;;
53903;SDS011;39812;52.430;16.936;2022-08-18T07:43:41;23.77;;;14.35;;
53903;SDS011;39812;52.430;16.936;2022-08-18T07:46:18;17.70;;;13.75;;
53903;SDS011;39812;52.430;16.936;2022-08-18T07:49:22;19.02;;;13.38;;
53903;SDS011;39812;52.430;16.936;2022-08-18T07:59:53;17.08;;;13.40;;
53903;SDS011;39812;52.430;16.936;2022-08-18T08:02:39;17.48;;;12.90;;
53903;SDS011;39812;52.430;16.936;2022-08-18T08:05:41;19.30;;;13.75;;
53903;SDS011;39812;52.430;16.936;2022-08-18T08:16:50;19.40;;;12.50;;
53903;SDS011;39812;52.430;16.936;2022-08-18T08:19:32;23.25;;;12.50;;
53903;SDS011;39812;52.430;16.936;2022-08-18T08:22:21;17.38;;;12.23;;
53903;SDS011;39812;52.430;16.936;2022-08-18T08:27:53;19.45;;;11.23;;
53903;SDS011;39812;52.430;16.936;2022-08-18T08:30:45;22.73;;;12.23;;
53903;SDS011;39812;52.430;16.936;2022-08-18T08:33:22;16.27;;;11.13;;
53903;SDS011;39812;52.430;16.936;2022-08-18T08:36:13;19.30;;;11.35;;
53903;SDS011;39812;52.430;16.936;2022-08-18T08:38:51;14.63;;;11.40;;
53903;SDS011;39812;52.430;16.936;2022-08-18T08:49:45;14.43;;;11.40;;
53903;SDS011;39812;52.430;16.936;2022-08-18T08:52:26;13.68;;;10.80;;
53903;SDS011;39812;52.430;16.936;2022-08-18T08:55:15;14.77;;;11.07;;
53903;SDS011;39812;52.430;16.936;2022-08-18T08:57:50;19.48;;;10.50;;
53903;SDS011;39812;52.430;16.936;2022-08-18T09:00:39;13.88;;;10.88;;
53903;SDS011;39812;52.430;16.936;2022-08-18T09:03:19;14.20;;;10.40;;
53903;SDS011;39812;52.430;16.936;2022-08-18T09:05:59;11.10;;;9.95;;
53903;SDS011;39812;52.430;16.936;2022-08-18T09:08:42;12.80;;;9.43;;
53903;SDS011;39812;52.430;16.936;2022-08-18T09:14:31;14.80;;;9.75;;
53903;SDS011;39812;52.430;16.936;2022-08-18T09:20:07;14.73;;;8.95;;
53903;SDS011;39812;52.430;16.936;2022-08-18T09:23:04;12.70;;;8.68;;
53903;SDS011;39812;52.430;16.936;2022-08-18T09:25:45;15.90;;;9.43;;
53903;SDS011;39812;52.430;16.936;2022-08-18T09:28:15;12.93;;;9.15;;
53903;SDS011;39812;52.430;16.936;2022-08-18T09:31:13;9.75;;;8.35;;
53903;SDS011;39812;52.430;16.936;2022-08-18T09:36:29;9.23;;;7.53;;
53903;SDS011;39812;52.430;16.936;2022-08-18T09:39:21;13.93;;;7.57;;
53903;SDS011;39812;52.430;16.936;2022-08-18T09:42:36;11.80;;;8.20;;
53903;SDS011;39812;52.430;16.936;2022-08-18T09:45:06;8.57;;;7.68;;
53903;SDS011;39812;52.430;16.936;2022-08-18T09:55:05;14.15;;;7.20;;
53903;SDS011;39812;52.430;16.936;2022-08-18T10:00:44;14.32;;;7.78;;
53903;SDS011;39812;52.430;16.936;2022-08-18T10:03:30;11.73;;;7.10;;
53903;SDS011;39812;52.430;16.936;2022-08-18T10:05:59;10.95;;;7.57;;
53903;SDS011;39812;52.430;16.936;2022-08-18T10:08:35;9.25;;;6.93;;
53903;SDS011;39812;52.430;16.936;2022-08-18T10:12:00;10.38;;;7.22;;
53903;SDS011;39812;52.430;16.936;2022-08-18T10:17:05;11.10;;;6.82;;
53903;SDS011;39812;52.430;16.936;2022-08-18T10:19:59;8.30;;;6.53;;
53903;SDS011;39812;52.430;16.936;2022-08-18T10:22:41;12.85;;;6.75;;
53903;SDS011;39812;52.430;16.936;2022-08-18T10:25:10;9.40;;;6.93;;
53903;SDS011;39812;52.430;16.936;2022-08-18T10:32:54;9.57;;;6.60;;
53903;SDS011;39812;52.430;16.936;2022-08-18T10:38:17;8.30;;;6.55;;
53903;SDS011;39812;52.430;16.936;2022-08-18T10:40:59;8.73;;;5.88;;
53903;SDS011;39812;52.430;16.936;2022-08-18T10:43:43;12.32;;;7.00;;
53903;SDS011;39812;52.430;16.936;2022-08-18T10:46:16;9.48;;;6.72;;
53903;SDS011;39812;52.430;16.936;2022-08-18T10:48:56;10.85;;;6.50;;
53903;SDS011;39812;52.430;16.936;2022-08-18T10:51:48;12.57;;;6.60;;
53903;SDS011;39812;52.430;16.936;2022-08-18T10:59:42;9.57;;;6.28;;
53903;SDS011;39812;52.430;16.936;2022-08-18T11:05:33;11.07;;;6.25;;
53903;SDS011;39812;52.430;16.936;2022-08-18T11:08:11;10.18;;;6.70;;
53903;SDS011;39812;52.430;16.936;2022-08-18T11:13:53;8.85;;;6.55;;
53903;SDS011;39812;52.430;16.936;2022-08-18T11:16:43;9.98;;;6.72;;
53903;SDS011;39812;52.430;16.936;2022-08-18T11:19:18;15.32;;;7.03;;
53903;SDS011;39812;52.430;16.936;2022-08-18T11:21:52;11.10;;;7.10;;
53903;SDS011;39812;52.430;16.936;2022-08-18T11:24:19;14.82;;;6.68;;
53903;SDS011;39812;52.430;16.936;2022-08-18T11:26:54;11.80;;;6.50;;
53903;SDS011;39812;52.430;16.936;2022-08-18T11:29:32;10.93;;;6.50;;
53903;SDS011;39812;52.430;16.936;2022-08-18T11:32:19;10.48;;;6.88;;
53903;SDS011;39812;52.430;16.936;2022-08-18T11:45:35;10.20;;;5.78;;
53903;SDS011;39812;52.430;16.936;2022-08-18T11:49:13;8.73;;;5.47;;
53903;SDS011;39812;52.430;16.936;2022-08-18T11:51:10;8.70;;;7.13;;
53903;SDS011;39812;52.430;16.936;2022-08-18T12:03:55;9.05;;;4.80;;
53903;SDS011;39812;52.430;16.936;2022-08-18T12:06:34;8.68;;;4.95;;
53903;SDS011;39812;52.430;16.936;2022-08-18T12:09:03;10.38;;;5.15;;
53903;SDS011;39812;52.430;16.936;2022-08-18T12:11:47;6.90;;;4.90;;
53903;SDS011;39812;52.430;16.936;2022-08-18T12:14:17;9.35;;;5.60;;
53903;SDS011;39812;52.430;16.936;2022-08-18T12:16:45;8.18;;;5.10;;
53903;SDS011;39812;52.430;16.936;2022-08-18T12:19:12;8.00;;;5.32;;
53903;SDS011;39812;52.430;16.936;2022-08-18T12:21:40;7.63;;;4.82;;
53903;SDS011;39812;52.430;16.936;2022-08-18T12:24:12;9.70;;;5.10;;
53903;SDS011;39812;52.430;16.936;2022-08-18T12:26:44;7.93;;;4.95;;
53903;SDS011;39812;52.430;16.936;2022-08-18T12:29:10;6.28;;;5.05;;
53903;SDS011;39812;52.430;16.936;2022-08-18T12:31:36;7.40;;;5.10;;
53903;SDS011;39812;52.430;16.936;2022-08-18T12:34:01;7.22;;;4.80;;
53903;SDS011;39812;52.430;16.936;2022-08-18T12:36:28;6.82;;;5.05;;
53903;SDS011;39812;52.430;16.936;2022-08-18T12:38:54;8.13;;;4.38;;
53903;SDS011;39812;52.430;16.936;2022-08-18T12:41:19;6.22;;;4.53;;
53903;SDS011;39812;52.430;16.936;2022-08-18T12:43:45;18.73;;;4.93;;
53903;SDS011;39812;52.430;16.936;2022-08-18T12:46:11;9.43;;;4.50;;
53903;SDS011;39812;52.430;16.936;2022-08-18T12:48:37;7.20;;;4.38;;
53903;SDS011;39812;52.430;16.936;2022-08-18T12:51:03;6.97;;;4.85;;
53903;SDS011;39812;52.430;16.936;2022-08-18T12:53:29;7.72;;;4.88;;
53903;SDS011;39812;52.430;16.936;2022-08-18T12:55:54;6.57;;;4.50;;
53903;SDS011;39812;52.430;16.936;2022-08-18T12:58:20;5.93;;;4.35;;
53903;SDS011;39812;52.430;16.936;2022-08-18T13:00:46;11.65;;;8.15;;
53903;SDS011;39812;52.430;16.936;2022-08-18T13:03:12;12.07;;;7.82;;
53903;SDS011;39812;52.430;16.936;2022-08-18T13:05:38;6.90;;;5.03;;
53903;SDS011;39812;52.430;16.936;2022-08-18T13:08:04;9.18;;;4.75;;
53903;SDS011;39812;52.430;16.936;2022-08-18T13:10:33;9.65;;;4.85;;
53903;SDS011;39812;52.430;16.936;2022-08-18T13:12:59;8.95;;;4.70;;
53903;SDS011;39812;52.430;16.936;2022-08-18T13:15:25;8.13;;;4.60;;
53903;SDS011;39812;52.430;16.936;2022-08-18T13:17:52;6.80;;;4.20;;
53903;SDS011;39812;52.430;16.936;2022-08-18T13:20:18;9.38;;;5.18;;
53903;SDS011;39812;52.430;16.936;2022-08-18T13:22:45;7.97;;;4.85;;
53903;SDS011;39812;52.430;16.936;2022-08-18T13:25:12;7.68;;;4.72;;
53903;SDS011;39812;52.430;16.936;2022-08-18T13:27:42;6.90;;;4.50;;
53903;SDS011;39812;52.430;16.936;2022-08-18T13:30:09;5.28;;;4.15;;
53903;SDS011;39812;52.430;16.936;2022-08-18T13:32:36;5.72;;;4.60;;
53903;SDS011;39812;52.430;16.936;2022-08-18T13:35:03;6.50;;;4.00;;
53903;SDS011;39812;52.430;16.936;2022-08-18T13:37:29;6.45;;;4.53;;
53903;SDS011;39812;52.430;16.936;2022-08-18T13:39:56;9.27;;;4.45;;
53903;SDS011;39812;52.430;16.936;2022-08-18T13:42:22;9.68;;;4.22;;
53903;SDS011;39812;52.430;16.936;2022-08-18T13:44:48;6.88;;;4.20;;
53903;SDS011;39812;52.430;16.936;2022-08-18T13:47:13;5.53;;;4.28;;
53903;SDS011;39812;52.430;16.936;2022-08-18T13:49:39;8.52;;;4.60;;
53903;SDS011;39812;52.430;16.936;2022-08-18T13:52:04;8.20;;;4.15;;
53903;SDS011;39812;52.430;16.936;2022-08-18T13:54:31;5.45;;;4.28;;
53903;SDS011;39812;52.430;16.936;2022-08-18T13:56:58;10.98;;;4.40;;
53903;SDS011;39812;52.430;16.936;2022-08-18T13:59:25;8.35;;;4.70;;
53903;SDS011;39812;52.430;16.936;2022-08-18T14:01:55;8.05;;;4.60;;
53903;SDS011;39812;52.430;16.936;2022-08-18T14:04:22;6.03;;;4.22;;
53903;SDS011;39812;52.430;16.936;2022-08-18T14:06:48;6.13;;;4.10;;
53903;SDS011;39812;52.430;16.936;2022-08-18T14:09:19;4.47;;;4.05;;
53903;SDS011;39812;52.430;16.936;2022-08-18T14:11:44;6.05;;;4.10;;
53903;SDS011;39812;52.430;16.936;2022-08-18T14:14:11;7.65;;;4.28;;
53903;SDS011;39812;52.430;16.936;2022-08-18T14:16:37;6.45;;;4.47;;
53903;SDS011;39812;52.430;16.936;2022-08-18T14:19:03;8.10;;;4.72;;
53903;SDS011;39812;52.430;16.936;2022-08-18T14:21:48;8.85;;;4.93;;
53903;SDS011;39812;52.430;16.936;2022-08-18T14:24:34;8.48;;;4.22;;
53903;SDS011;39812;52.430;16.936;2022-08-18T14:27:26;9.40;;;4.40;;
53903;SDS011;39812;52.430;16.936;2022-08-18T14:29:54;7.78;;;5.00;;
53903;SDS011;39812;52.430;16.936;2022-08-18T14:32:21;7.57;;;4.65;;
53903;SDS011;39812;52.430;16.936;2022-08-18T14:34:48;7.88;;;4.53;;
53903;SDS011;39812;52.430;16.936;2022-08-18T14:37:13;7.80;;;4.70;;
53903;SDS011;39812;52.430;16.936;2022-08-18T14:39:39;8.02;;;4.60;;
53903;SDS011;39812;52.430;16.936;2022-08-18T14:42:05;7.20;;;3.88;;
53903;SDS011;39812;52.430;16.936;2022-08-18T14:44:30;8.73;;;4.25;;
53903;SDS011;39812;52.430;16.936;2022-08-18T14:46:56;5.95;;;4.38;;
53903;SDS011;39812;52.430;16.936;2022-08-18T14:49:22;6.75;;;4.20;;
53903;SDS011;39812;52.430;16.936;2022-08-18T14:51:48;4.55;;;4.07;;
53903;SDS011;39812;52.430;16.936;2022-08-18T14:54:14;6.60;;;4.38;;
53903;SDS011;39812;52.430;16.936;2022-08-18T14:56:39;5.38;;;4.05;;
53903;SDS011;39812;52.430;16.936;2022-08-18T14:59:05;5.30;;;4.03;;
53903;SDS011;39812;52.430;16.936;2022-08-18T15:01:32;5.60;;;4.00;;
53903;SDS011;39812;52.430;16.936;2022-08-18T15:03:58;7.60;;;4.00;;
53903;SDS011;39812;52.430;16.936;2022-08-18T15:06:24;9.77;;;4.10;;
53903;SDS011;39812;52.430;16.936;2022-08-18T15:08:49;6.32;;;4.20;;
53903;SDS011;39812;52.430;16.936;2022-08-18T15:11:15;6.20;;;4.45;;
53903;SDS011;39812;52.430;16.936;2022-08-18T15:13:41;9.90;;;4.32;;
53903;SDS011;39812;52.430;16.936;2022-08-18T15:16:07;8.65;;;4.15;;
53903;SDS011;39812;52.430;16.936;2022-08-18T15:18:37;5.53;;;3.80;;
53903;SDS011;39812;52.430;16.936;2022-08-18T15:21:03;6.97;;;3.90;;
53903;SDS011;39812;52.430;16.936;2022-08-18T15:23:47;6.28;;;4.28;;
53903;SDS011;39812;52.430;16.936;2022-08-18T15:26:31;9.88;;;3.88;;
53903;SDS011;39812;52.430;16.936;2022-08-18T15:28:57;6.75;;;3.85;;
53903;SDS011;39812;52.430;16.936;2022-08-18T15:31:23;10.40;;;4.30;;
53903;SDS011;39812;52.430;16.936;2022-08-18T15:33:50;4.95;;;3.90;;
53903;SDS011;39812;52.430;16.936;2022-08-18T15:36:15;5.15;;;4.07;;
53903;SDS011;39812;52.430;16.936;2022-08-18T15:38:45;6.80;;;4.20;;
53903;SDS011;39812;52.430;16.936;2022-08-18T15:41:31;5.82;;;4.05;;
53903;SDS011;39812;52.430;16.936;2022-08-18T15:44:03;5.63;;;3.92;;
53903;SDS011;39812;52.430;16.936;2022-08-18T15:46:31;8.25;;;3.85;;
53903;SDS011;39812;52.430;16.936;2022-08-18T15:48:58;7.05;;;4.30;;
53903;SDS011;39812;52.430;16.936;2022-08-18T15:51:24;11.63;;;4.50;;
53903;SDS011;39812;52.430;16.936;2022-08-18T15:53:50;4.70;;;4.22;;
53903;SDS011;39812;52.430;16.936;2022-08-18T15:56:18;7.38;;;4.30;;
53903;SDS011;39812;52.430;16.936;2022-08-18T15:58:45;6.85;;;4.80;;
53903;SDS011;39812;52.430;16.936;2022-08-18T16:01:12;9.45;;;4.72;;
53903;SDS011;39812;52.430;16.936;2022-08-18T16:03:38;6.88;;;4.45;;
53903;SDS011;39812;52.430;16.936;2022-08-18T16:06:04;8.02;;;4.32;;
53903;SDS011;39812;52.430;16.936;2022-08-18T16:08:31;8.20;;;4.85;;
53903;SDS011;39812;52.430;16.936;2022-08-18T16:10:56;5.22;;;4.70;;
53903;SDS011;39812;52.430;16.936;2022-08-18T16:13:22;8.85;;;4.53;;
53903;SDS011;39812;52.430;16.936;2022-08-18T16:15:53;8.02;;;4.70;;
53903;SDS011;39812;52.430;16.936;2022-08-18T16:18:18;7.90;;;4.90;;
53903;SDS011;39812;52.430;16.936;2022-08-18T16:20:46;6.55;;;4.90;;
53903;SDS011;39812;52.430;16.936;2022-08-18T16:23:12;9.52;;;5.10;;
53903;SDS011;39812;52.430;16.936;2022-08-18T16:25:39;10.93;;;4.97;;
53903;SDS011;39812;52.430;16.936;2022-08-18T16:28:06;7.95;;;5.20;;
53903;SDS011;39812;52.430;16.936;2022-08-18T16:30:31;8.50;;;4.97;;
53903;SDS011;39812;52.430;16.936;2022-08-18T16:33:01;7.10;;;5.03;;
53903;SDS011;39812;52.430;16.936;2022-08-18T16:35:29;8.18;;;5.18;;